Time;durP1;ratioP1;P1;durP2;ratioP2;P2;SDS_P1;SDS_P2;PMS_P1;PMS_P2;Temp;Humidity;BMP_temperature;BMP_pressure;BME280_temperature;BME280_humidity;BME280_pressure;Samples;Min_cycle;Max_cycle;Signal;HPM_P1;HPM_P2
2023/10/28 00:01:32;;;;;;;;;;;;;;;11.10;100.00;98764.47;1396893;87;21332;-80
2023/10/28 00:04:02;;;;;;;2.53;1.20;;;;;;;11.08;100.00;98763.36;1398421;87;20229;-79
2023/10/28 00:06:29;;;;;;;5.93;1.13;;;;;;;11.06;100.00;98765.37;1396271;87;22219;-79
2023/10/28 00:08:56;;;;;;;2.43;1.40;;;;;;;11.05;100.00;98781.77;1397950;87;21198;-81
2023/10/28 00:11:23;;;;;;;1.00;0.80;;;;;;;11.03;100.00;98769.21;1398079;89;21346;-79
2023/10/28 00:13:50;;;;;;;3.30;0.97;;;;;;;11.04;100.00;98775.32;1398839;88;21391;-80
2023/10/28 00:16:19;;;;;;;1.47;1.10;;;;;;;11.03;100.00;98781.63;1397102;87;21230;-78
2023/10/28 00:18:46;;;;;;;2.63;1.00;;;;;;;11.03;100.00;98775.02;1546072;88;21302;-78
2023/10/28 00:21:17;;;;;;;2.07;0.87;;;;;;;11.02;100.00;98781.33;1398780;88;21235;-77
2023/10/28 00:23:42;;;;;;;2.97;1.17;;;;;;;11.01;100.00;98790.27;1402133;87;21249;-78
2023/10/28 00:26:10;;;;;;;1.37;1.00;;;;;;;10.99;100.00;98786.98;1398527;87;21404;-80
2023/10/28 00:28:39;;;;;;;4.00;1.57;;;;;;;10.96;100.00;98789.53;1391287;89;21273;-80
2023/10/28 00:31:06;;;;;;;1.60;1.50;;;;;;;10.95;100.00;98797.64;1396727;87;21265;-80
2023/10/28 00:33:34;;;;;;;2.10;1.13;;;;;;;10.94;100.00;98799.98;1545838;88;21249;-83
2023/10/28 00:36:09;;;;;;;2.37;1.10;;;;;;;10.89;100.00;98807.67;1403631;87;21406;-80
2023/10/28 00:38:36;;;;;;;1.20;1.00;;;;;;;10.88;100.00;98806.04;1397344;87;21236;-80
2023/10/28 00:41:04;;;;;;;2.13;1.17;;;;;;;10.86;100.00;98817.31;1398697;87;21310;-82
2023/10/28 00:43:32;;;;;;;1.10;1.00;;;;;;;10.84;100.00;98814.33;1398514;87;22256;-83
2023/10/28 00:45:59;;;;;;;2.13;1.10;;;;;;;10.82;100.00;98811.58;1397996;88;21272;-80
2023/10/28 00:48:29;;;;;;;6.83;2.23;;;;;;;10.80;100.00;98824.98;1404418;87;21487;-80
2023/10/28 00:50:58;;;;;;;1.70;1.27;;;;;;;10.79;100.00;98825.19;1394710;88;21412;-80
2023/10/28 00:53:27;;;;;;;2.13;1.20;;;;;;;10.74;100.00;98828.39;1396744;87;22144;-82
2023/10/28 00:55:54;;;;;;;2.40;1.00;;;;;;;10.73;100.00;98833.86;1402752;87;22115;-81
2023/10/28 00:58:22;;;;;;;1.70;1.03;;;;;;;10.71;100.00;98836.70;1559092;88;21118;-80
2023/10/28 01:00:50;;;;;;;3.43;1.20;;;;;;;10.70;100.00;98837.69;1402779;88;21345;-81
2023/10/28 01:03:18;;;;;;;1.27;1.10;;;;;;;10.66;100.00;98839.08;1398721;88;21287;-81
2023/10/28 01:05:46;;;;;;;10.40;1.93;;;;;;;10.65;100.00;98846.72;1397689;87;21316;-83
2023/10/28 01:08:13;;;;;;;3.63;1.00;;;;;;;10.62;100.00;98845.77;1397670;88;21273;-80
2023/10/28 01:10:40;;;;;;;1.63;1.20;;;;;;;10.60;100.00;98849.09;1398462;88;21191;-82
2023/10/28 01:13:08;;;;;;;2.87;1.23;;;;;;;10.59;100.00;98842.98;1398415;88;21316;-82
2023/10/28 01:15:35;;;;;;;2.80;1.23;;;;;;;10.56;100.00;98857.09;1398978;87;21250;-83
2023/10/28 01:18:03;;;;;;;1.40;1.30;;;;;;;10.53;100.00;98862.73;1403954;88;21279;-81
2023/10/28 01:20:30;;;;;;;2.03;1.20;;;;;;;10.52;100.00;98866.39;1398387;88;21449;-81
2023/10/28 01:22:58;;;;;;;3.07;1.30;;;;;;;10.53;100.00;98865.37;1557883;87;21213;-82
2023/10/28 01:25:26;;;;;;;2.10;1.00;;;;;;;10.52;100.00;98867.71;1397397;87;21324;-82
2023/10/28 01:27:53;;;;;;;2.80;1.17;;;;;;;10.49;100.00;98876.02;1469125;88;22293;-83
2023/10/28 01:30:20;;;;;;;5.63;1.37;;;;;;;10.45;100.00;98874.77;1475572;88;21398;-82
2023/10/28 01:32:47;;;;;;;2.17;1.53;;;;;;;10.43;100.00;98882.05;1474089;88;21532;-85
2023/10/28 01:35:15;;;;;;;1.93;1.40;;;;;;;10.41;100.00;98886.19;1469517;88;21383;-80
2023/10/28 01:37:42;;;;;;;6.27;1.23;;;;;;;10.37;100.00;98895.00;1468019;88;21367;-78
2023/10/28 01:40:13;;;;;;;2.67;1.83;;;;;;;10.39;100.00;98895.65;1470230;87;21324;-79
2023/10/28 01:42:41;;;;;;;;;;;;;;;10.37;100.00;98891.03;1477570;87;21553;-83
2023/10/28 01:45:10;;;;;;;2.73;1.30;;;;;;;10.35;100.00;98894.35;1476165;87;20252;-82
2023/10/28 01:47:41;;;;;;;1.40;1.10;;;;;;;10.35;100.00;98896.19;1473181;88;21317;-80
2023/10/28 01:50:13;;;;;;;1.22;0.90;;;;;;;10.35;100.00;98910.22;1475403;88;21549;-80
2023/10/28 01:52:42;;;;;;;1.17;0.97;;;;;;;10.34;100.00;98906.45;1559102;87;21550;-82
2023/10/28 01:55:09;;;;;;;2.43;1.03;;;;;;;10.33;100.00;98899.53;1397335;87;22153;-81
2023/10/28 01:57:36;;;;;;;2.30;1.10;;;;;;;10.34;100.00;98912.56;1404608;87;21479;-80
2023/10/28 02:00:07;;;;;;;4.33;1.00;;;;;;;10.34;100.00;98913.88;1404158;87;21280;-80
2023/10/28 02:02:34;;;;;;;;;;;;;;;10.35;100.00;98918.16;1560360;87;21438;-81
2023/10/28 02:05:01;;;;;;;1.30;1.20;;;;;;;10.34;100.00;98917.03;1399082;88;20283;-80
2023/10/28 02:07:28;;;;;;;2.00;0.90;;;;;;;10.34;100.00;98913.88;1398821;88;21405;-80
2023/10/28 02:09:56;;;;;;;2.00;0.90;;;;;;;10.34;100.00;98912.56;1398623;88;21251;-78
2023/10/28 02:12:24;;;;;;;1.70;1.33;;;;;;;10.35;100.00;98921.31;1398463;88;22180;-79
2023/10/28 02:14:52;;;;;;;1.77;1.00;;;;;;;10.35;100.00;98921.31;1397602;87;21420;-77
2023/10/28 02:17:19;;;;;;;1.03;0.90;;;;;;;10.34;100.00;98929.75;1548796;88;21294;-79
2023/10/28 02:19:46;;;;;;;2.43;0.80;;;;;;;10.36;100.00;98922.97;1398445;87;21317;-77
2023/10/28 02:22:14;;;;;;;2.13;1.00;;;;;;;10.37;100.00;98932.02;1398283;88;21213;-77
2023/10/28 02:24:41;;;;;;;2.43;1.00;;;;;;;10.37;100.00;98937.31;1398957;88;21287;-77
2023/10/28 02:27:11;;;;;;;3.50;1.10;;;;;;;10.37;100.00;98934.67;1397451;88;21552;-77
2023/10/28 02:29:38;;;;;;;2.23;0.90;;;;;;;10.40;100.00;98937.45;1403662;88;22197;-76
2023/10/28 02:32:08;;;;;;;1.30;0.93;;;;;;;10.38;100.00;98944.23;1392072;89;21316;-78
2023/10/28 02:34:36;;;;;;;1.23;0.90;;;;;;;10.39;100.00;98944.58;1406717;88;22396;-77
2023/10/28 02:37:05;;;;;;;2.20;0.70;;;;;;;10.42;100.00;98939.93;1478362;88;21354;-78
2023/10/28 02:39:35;;;;;;;1.77;0.90;;;;;;;10.41;100.00;98944.88;1467307;87;21836;-78
2023/10/28 02:42:02;;;;;;;1.85;0.80;;;;;;;10.39;100.00;98941.93;1474992;87;21441;-78
2023/10/28 02:44:30;;;;;;;2.47;0.80;;;;;;;10.38;100.00;98945.55;1472750;87;21301;-78
2023/10/28 02:46:58;;;;;;;1.57;0.83;;;;;;;10.38;100.00;98947.38;1472690;87;21493;-78
2023/10/28 02:49:27;;;;;;;6.07;0.80;;;;;;;10.36;100.00;98938.84;1475353;88;21426;-78
2023/10/28 02:51:54;;;;;;;1.00;0.80;;;;;;;10.36;100.00;98940.16;1471821;88;21420;-78
2023/10/28 02:54:21;;;;;;;1.17;0.80;;;;;;;10.36;100.00;98940.16;1469045;88;21449;-79
2023/10/28 02:56:49;;;;;;;0.83;0.70;;;;;;;10.34;100.00;98946.12;1472564;87;21420;-78
2023/10/28 02:59:16;;;;;;;4.20;1.00;;;;;;;10.36;100.00;98954.20;1465264;87;21545;-78
2023/10/28 03:01:43;;;;;;;1.67;1.00;;;;;;;10.36;100.00;98962.13;1464435;88;22344;-78
2023/10/28 03:04:12;;;;;;;1.57;0.87;;;;;;;10.36;100.00;98963.45;1472945;87;21309;-79
2023/10/28 03:06:39;;;;;;;0.83;0.63;;;;;;;10.38;100.00;98969.36;1460448;88;21522;-79
2023/10/28 03:09:06;;;;;;;10.93;1.00;;;;;;;10.37;100.00;98985.42;1465808;88;21590;-78
2023/10/28 03:11:33;;;;;;;1.90;1.07;;;;;;;10.37;100.00;98987.56;1471579;88;21360;-80
2023/10/28 03:14:01;;;;;;;2.50;1.33;;;;;;;10.37;100.00;98982.78;1474677;87;21412;-80
2023/10/28 03:16:28;;;;;;;2.30;1.10;;;;;;;10.35;100.00;98990.88;1477948;87;21456;-81
2023/10/28 03:18:56;;;;;;;1.10;1.00;;;;;;;10.35;100.00;98996.67;1468062;87;21411;-78
2023/10/28 03:21:25;;;;;;;2.93;1.00;;;;;;;10.31;100.00;99001.52;1472021;87;21434;-79
2023/10/28 03:23:52;;;;;;;2.27;0.70;;;;;;;10.31;100.00;99002.02;1471989;87;21375;-78
2023/10/28 03:26:19;;;;;;;3.03;0.97;;;;;;;10.29;100.00;99012.77;1467085;88;21447;-78
2023/10/28 03:28:46;;;;;;;1.23;0.83;;;;;;;10.26;100.00;99007.80;1477135;88;21368;-79
2023/10/28 03:31:14;;;;;;;2.43;0.87;;;;;;;10.25;100.00;99018.07;1464544;87;21493;-79
2023/10/28 03:33:41;;;;;;;1.73;0.80;;;;;;;10.23;100.00;99020.06;1471744;87;21360;-79
2023/10/28 03:36:09;;;;;;;1.93;0.80;;;;;;;10.22;100.00;99015.79;1472426;87;21933;-79
2023/10/28 03:38:37;;;;;;;4.40;1.23;;;;;;;10.21;100.00;99031.31;1466592;88;21530;-79
2023/10/28 03:41:09;;;;;;;2.30;1.00;;;;;;;10.20;100.00;99029.68;1555564;87;21361;-79
2023/10/28 03:43:38;;;;;;;2.13;1.10;;;;;;;10.19;100.00;99035.16;1402997;87;21331;-79
2023/10/28 03:46:06;;;;;;;2.37;1.10;;;;;;;10.18;100.00;99035.64;1494328;87;21574;-79
2023/10/28 03:48:34;;;;;;;1.90;0.87;;;;;;;10.17;100.00;99040.11;1423890;87;21331;-80
2023/10/28 03:51:05;;;;;;;4.87;1.63;;;;;;;10.17;100.00;99038.79;1470526;87;22517;-77
2023/10/28 03:53:33;;;;;;;5.13;1.73;;;;;;;10.14;100.00;99043.11;1472851;88;22507;-77
2023/10/28 03:56:00;;;;;;;2.17;1.40;;;;;;;10.11;100.00;99049.27;1473755;87;21350;-78
2023/10/28 03:58:27;;;;;;;3.87;1.03;;;;;;;10.09;100.00;99047.29;1473509;88;21402;-78
2023/10/28 04:00:55;;;;;;;3.33;1.10;;;;;;;10.07;100.00;99042.67;1473516;88;21279;-77
2023/10/28 04:03:23;;;;;;;2.67;1.50;;;;;;;10.06;100.00;99048.97;1471752;87;22336;-79
2023/10/28 04:05:53;;;;;;;5.00;0.83;;;;;;;10.05;100.00;99049.98;1397424;87;22204;-78
2023/10/28 04:08:20;;;;;;;1.50;1.20;;;;;;;10.01;100.00;99057.45;1396122;87;22306;-78
2023/10/28 04:10:47;;;;;;;1.30;1.00;;;;;;;10.01;100.00;99056.13;1399001;87;21316;-76
2023/10/28 04:13:14;;;;;;;2.40;0.87;;;;;;;10.00;100.00;99054.97;1405145;88;21293;-77
2023/10/28 04:15:42;;;;;;;2.60;1.10;;;;;;;9.99;100.00;99052.02;1398439;87;22093;-77
2023/10/28 04:18:09;;;;;;;1.50;1.17;;;;;;;9.99;100.00;99054.66;1398555;87;21325;-79
2023/10/28 04:20:37;;;;;;;1.27;0.93;;;;;;;9.98;100.00;99061.74;1392104;89;21338;-78
2023/10/28 04:23:05;;;;;;;1.30;0.90;;;;;;;9.99;100.00;99061.27;1397396;87;21265;-78
2023/10/28 04:25:33;;;;;;;7.60;1.40;;;;;;;9.99;100.00;99067.88;1397595;87;22498;-79
2023/10/28 04:28:00;;;;;;;1.43;1.13;;;;;;;9.99;100.00;99069.20;1404481;88;22130;-81
2023/10/28 04:30:27;;;;;;;2.53;1.40;;;;;;;9.97;100.00;99068.55;1559108;87;21332;-80
2023/10/28 04:32:55;;;;;;;1.63;1.30;;;;;;;9.97;100.00;99064.58;1398537;88;22146;-80
2023/10/28 04:35:23;;;;;;;2.90;2.13;;;;;;;9.96;100.00;99065.08;1398888;88;21250;-81
2023/10/28 04:37:51;;;;;;;3.27;1.60;;;;;;;9.95;100.00;99067.38;1390204;89;21265;-80
2023/10/28 04:40:18;;;;;;;6.97;1.30;;;;;;;9.96;100.00;99070.37;1398921;88;21206;-79
2023/10/28 04:42:47;;;;;;;2.60;1.30;;;;;;;9.96;100.00;99069.55;1448356;87;22471;-80
2023/10/28 04:45:14;;;;;;;1.33;1.00;;;;;;;9.96;100.00;99069.55;1471837;87;22731;-80
2023/10/28 04:47:41;;;;;;;5.43;1.90;;;;;;;9.94;100.00;99070.53;1469712;88;22291;-80
2023/10/28 04:50:11;;;;;;;4.93;1.67;;;;;;;9.93;100.00;99074.19;1468809;87;21493;-78
2023/10/28 04:52:38;;;;;;;3.33;1.23;;;;;;;9.94;100.00;99073.17;1474768;88;22299;-80
2023/10/28 04:55:06;;;;;;;2.70;1.00;;;;;;;9.97;100.00;99065.90;1467796;87;21419;-77
2023/10/28 04:57:33;;;;;;;3.90;1.33;;;;;;;9.97;100.00;99064.58;1472703;88;21442;-80
2023/10/28 05:00:00;;;;;;;2.40;0.83;;;;;;;9.99;100.00;99061.27;1470311;87;21456;-80
2023/10/28 05:02:27;;;;;;;3.53;1.20;;;;;;;10.00;100.00;99070.33;1468134;88;21360;-80
2023/10/28 05:04:54;;;;;;;1.90;0.87;;;;;;;10.00;100.00;99077.44;1471609;88;21835;-81
2023/10/28 05:07:22;;;;;;;2.83;1.30;;;;;;;10.01;100.00;99075.11;1468867;88;22351;-80
2023/10/28 05:09:49;;;;;;;7.67;1.20;;;;;;;10.03;100.00;99078.41;1474240;88;21398;-81
2023/10/28 05:12:16;;;;;;;4.17;1.30;;;;;;;10.03;100.00;99081.86;1473392;88;21279;-80
2023/10/28 05:14:44;;;;;;;2.10;0.90;;;;;;;10.01;100.00;99081.23;1471348;87;21508;-80
2023/10/28 05:17:11;;;;;;;2.50;0.80;;;;;;;10.01;100.00;99088.32;1555473;87;21287;-80
2023/10/28 05:19:39;;;;;;;2.50;1.00;;;;;;;9.98;100.00;99097.92;1391988;89;21309;-81
2023/10/28 05:22:07;;;;;;;3.47;2.30;;;;;;;9.97;100.00;99102.90;1398989;87;21373;-81
2023/10/28 05:24:35;;;;;;;3.07;1.30;;;;;;;9.98;100.00;99112.46;1396976;87;22072;-80
2023/10/28 05:27:02;;;;;;;4.27;1.20;;;;;;;10.00;100.00;99117.08;1398985;88;21287;-80
2023/10/28 05:29:30;;;;;;;5.97;1.13;;;;;;;10.01;100.00;99124.85;1403972;87;21287;-80
2023/10/28 05:31:57;;;;;;;3.00;0.90;;;;;;;10.05;100.00;99133.25;1559257;88;21934;-81
2023/10/28 05:34:24;;;;;;;2.30;1.20;;;;;;;10.09;100.00;99130.05;1398675;88;21184;-80
2023/10/28 05:36:51;;;;;;;3.03;1.20;;;;;;;10.13;100.00;99131.87;1399018;87;21236;-80
2023/10/28 05:39:20;;;;;;;1.93;1.03;;;;;;;10.16;100.00;99142.91;1398831;88;21491;-80
2023/10/28 05:41:50;;;;;;;2.83;1.10;;;;;;;10.18;100.00;99138.75;1389494;89;21257;-78
2023/10/28 05:44:18;;;;;;;2.33;1.10;;;;;;;10.20;100.00;99147.34;1405154;87;21435;-80
2023/10/28 05:46:45;;;;;;;1.97;0.90;;;;;;;10.23;100.00;99145.66;1447313;89;21449;-79
2023/10/28 05:53:11;;;;;;;3.43;1.53;;;;;;;10.30;100.00;99152.41;1559255;88;21191;-79
2023/10/28 05:55:39;;;;;;;2.10;1.03;;;;;;;10.39;100.00;99160.13;1392287;89;21414;-80
2023/10/28 05:58:06;;;;;;;3.47;1.07;;;;;;;10.45;100.00;99174.47;1404617;87;21376;-81
2023/10/28 06:00:33;;;;;;;2.13;1.00;;;;;;;10.52;100.00;99175.89;1404496;88;22256;-81
2023/10/28 06:03:04;;;;;;;1.77;0.83;;;;;;;10.58;100.00;99178.64;1559249;87;21185;-83
2023/10/28 06:05:30;;;;;;;1.93;1.20;;;;;;;10.66;100.00;99177.76;1544489;88;22079;-83
2023/10/28 06:07:57;;;;;;;4.00;1.03;;;;;;;10.76;100.00;99188.08;1399168;87;21302;-82
2023/10/28 06:10:25;;;;;;;2.30;1.07;;;;;;;10.84;100.00;99188.83;1398439;87;21383;-82
2023/10/28 06:12:52;;;;;;;3.60;1.87;;;;;;;10.93;100.00;99188.77;1398413;87;22093;-82
2023/10/28 06:15:19;;;;;;;4.10;1.20;;;;;;;10.99;100.00;99194.66;1404540;87;21257;-83
2023/10/28 06:17:47;;;;;;;1.47;0.90;;;;;;;11.09;100.00;99197.88;1398759;88;21235;-83
2023/10/28 06:20:14;;;;;;;3.13;0.80;;;;;;;11.14;100.00;99208.77;1399253;87;21391;-82
2023/10/28 06:22:42;;;;;;;2.03;1.10;;;;;;;11.18;100.00;99212.67;1392047;89;22034;-80
2023/10/28 06:25:10;;;;;;;2.40;1.30;;;;;;;11.26;100.00;99213.92;1397451;87;21199;-80
2023/10/28 06:27:37;;;;;;;2.03;1.20;;;;;;;11.34;100.00;99224.13;1398749;87;21457;-81
2023/10/28 06:30:11;;;;;;;2.10;1.03;;;;;;;11.39;100.00;99227.03;1467515;87;21368;-81
2023/10/28 06:32:39;;;;;;;2.83;1.43;;;;;;;11.42;100.00;99231.48;1475264;87;21589;-81
2023/10/28 06:35:07;;;;;;;2.30;1.07;;;;;;;11.44;100.00;99233.94;1467074;87;21456;-80
2023/10/28 06:37:39;;;;;;;1.20;0.90;;;;;;;11.43;100.00;99241.58;1476950;87;22338;-80
2023/10/28 06:40:04;;;;;;;1.80;1.47;;;;;;;11.44;100.00;99252.48;1474068;87;22416;-81
2023/10/28 06:42:32;;;;;;;4.23;1.07;;;;;;;11.49;100.00;99251.44;1468071;87;21419;-80
2023/10/28 06:44:59;;;;;;;3.57;1.87;;;;;;;11.56;100.00;99243.06;1467016;88;21560;-81
2023/10/28 06:47:26;;;;;;;2.47;1.67;;;;;;;11.65;100.00;99255.25;1474283;87;22307;-80
2023/10/28 06:49:53;;;;;;;7.10;2.30;;;;;;;11.69;100.00;99266.30;1472842;87;21346;-82
2023/10/28 06:52:22;;;;;;;4.10;1.50;;;;;;;11.77;100.00;99264.03;1470289;88;21361;-81
2023/10/28 06:54:49;;;;;;;4.60;1.67;;;;;;;11.85;100.00;99268.77;1471844;88;21434;-80
2023/10/28 06:57:16;;;;;;;3.60;1.97;;;;;;;11.96;100.00;99274.12;1473927;87;21382;-80
2023/10/28 06:59:44;;;;;;;9.63;3.27;;;;;;;12.06;100.00;99282.63;1469701;87;22988;-82
2023/10/28 07:02:11;;;;;;;5.70;3.03;;;;;;;12.22;100.00;99282.08;1473130;88;21361;-82
2023/10/28 07:04:38;;;;;;;6.43;2.90;;;;;;;12.38;100.00;99295.14;1476989;87;21822;-83
2023/10/28 07:07:05;;;;;;;4.50;2.40;;;;;;;12.52;100.00;99294.79;1469962;88;21448;-83
2023/10/28 07:09:32;;;;;;;4.90;2.63;;;;;;;12.70;100.00;99295.69;1477620;87;22549;-84
2023/10/28 07:11:59;;;;;;;4.87;2.40;;;;;;;12.85;100.00;99299.91;1473493;87;21499;-80
2023/10/28 07:14:26;;;;;;;3.17;1.93;;;;;;;13.03;100.00;99303.95;1473418;87;22218;-81
2023/10/28 07:16:53;;;;;;;4.27;2.67;;;;;;;13.16;100.00;99305.91;1472359;88;21427;-79
2023/10/28 07:19:21;;;;;;;2.73;1.70;;;;;;;13.28;100.00;99309.72;1473451;87;21345;-80
2023/10/28 07:21:48;;;;;;;2.33;1.60;;;;;;;13.41;100.00;99313.82;1468849;88;22159;-81
2023/10/28 07:24:15;;;;;;;2.13;1.63;;;;;;;13.46;100.00;99307.39;1477408;87;21376;-81
2023/10/28 07:26:42;;;;;;;6.07;2.10;;;;;;;13.41;100.00;99309.02;1473103;87;21478;-80
2023/10/28 07:29:10;;;;;;;4.37;1.80;;;;;;;13.39;100.00;99317.17;1475335;87;22307;-80
2023/10/28 07:31:40;;;;;;;3.90;1.70;;;;;;;13.40;100.00;99324.12;1464036;88;22965;-80
2023/10/28 07:34:07;;;;;;;1.87;1.42;;;;;;;13.49;100.00;99325.64;1468533;87;22452;-81
2023/10/28 07:36:35;;;;;;;3.20;1.40;;;;;;;13.62;100.00;99326.74;1477764;88;21353;-79
2023/10/28 07:39:03;;;;;;;3.07;1.50;;;;;;;13.75;100.00;99326.33;1466455;88;21514;-79
2023/10/28 07:41:30;;;;;;;2.70;1.30;;;;;;;13.89;100.00;99331.71;1476909;87;21449;-77
2023/10/28 07:43:58;;;;;;;5.73;1.47;;;;;;;14.02;100.00;99334.97;1476613;87;21683;-78
2023/10/28 07:51:04;;;;;;;3.93;1.40;;;;;;;14.15;100.00;99335.84;1467969;88;21382;-79
2023/10/28 07:53:32;;;;;;;6.83;2.73;;;;;;;14.30;100.00;99340.20;1470600;87;21501;-79
2023/10/28 07:55:59;;;;;;;2.67;1.37;;;;;;;14.47;100.00;99343.34;1473638;88;22351;-77
2023/10/28 07:58:29;;;;;;;4.20;1.43;;;;;;;14.57;100.00;99345.17;1464648;88;21467;-77
2023/10/28 08:00:57;;;;;;;4.67;1.45;;;;;;;14.67;100.00;99346.92;1470259;88;21969;-79
2023/10/28 08:03:25;;;;;;;2.13;1.20;;;;;;;14.73;100.00;99363.46;1467580;87;22463;-77
2023/10/28 08:05:52;;;;;;;4.33;2.00;;;;;;;14.78;100.00;99366.31;1473199;88;21352;-78
2023/10/28 08:08:19;;;;;;;6.27;1.40;;;;;;;14.83;100.00;99365.22;1473914;87;21360;-79
2023/10/28 08:10:46;;;;;;;2.43;1.13;;;;;;;14.93;100.00;99371.99;1468554;88;21354;-77
2023/10/28 08:13:14;;;;;;;2.47;1.27;;;;;;;15.03;100.00;99373.25;1468086;88;21381;-78
2023/10/28 08:15:41;;;;;;;2.57;1.33;;;;;;;15.11;100.00;99378.40;1555699;87;21301;-78
2023/10/28 08:18:08;;;;;;;2.87;0.90;;;;;;;15.18;100.00;99377.58;1398321;87;22233;-78
2023/10/28 08:20:35;;;;;;;1.67;1.10;;;;;;;15.27;100.00;99383.02;1398843;87;21265;-77
2023/10/28 08:23:03;;;;;;;1.40;1.00;;;;;;;15.35;100.00;99390.83;1398333;87;21473;-79
2023/10/28 08:25:32;;;;;;;2.67;1.23;;;;;;;15.45;100.00;99391.75;1545561;88;21338;-79
2023/10/28 08:27:59;;;;;;;3.80;2.10;;;;;;;15.55;100.00;99392.98;1398538;88;21287;-77
2023/10/28 08:30:27;;;;;;;2.03;1.00;;;;;;;15.70;100.00;99388.80;1398928;88;21317;-78
2023/10/28 08:32:54;;;;;;;1.37;0.93;;;;;;;15.78;100.00;99400.60;1399040;87;21346;-78
2023/10/28 08:35:22;;;;;;;3.03;1.37;;;;;;;15.77;100.00;99405.64;1398749;88;21258;-78
2023/10/28 08:37:49;;;;;;;4.17;1.40;;;;;;;15.79;100.00;99408.94;1433846;87;21669;-78
2023/10/28 08:40:17;;;;;;;2.70;1.60;;;;;;;15.91;100.00;99404.28;1462493;88;21457;-78
2023/10/28 08:42:45;;;;;;;2.40;1.17;;;;;;;16.03;100.00;99413.31;1471380;88;22550;-78
2023/10/28 08:45:16;;;;;;;4.07;1.13;;;;;;;16.11;100.00;99413.59;1472319;88;21442;-77
2023/10/28 08:47:45;;;;;;;3.60;1.22;;;;;;;16.19;100.00;99416.86;1470142;87;22469;-79
2023/10/28 08:54:16;;;;;;;1.73;0.87;;;;;;;16.31;100.00;99422.89;1475034;88;21508;-80
2023/10/28 08:56:46;;;;;;;2.25;0.85;;;;;;;16.47;100.00;99425.12;1467461;87;21511;-77
2023/10/28 08:59:13;;;;;;;2.33;0.97;;;;;;;16.60;100.00;99434.92;1474993;88;21589;-77
2023/10/28 09:01:41;;;;;;;3.70;0.90;;;;;;;16.94;100.00;99433.79;1471556;88;21338;-90
2023/10/28 09:04:08;;;;;;;1.57;1.00;;;;;;;17.51;100.00;99429.86;1472783;87;21526;-84
2023/10/28 09:06:35;;;;;;;1.07;0.70;;;;;;;18.20;100.00;99441.45;1466339;88;21456;-89
2023/10/28 09:09:06;;;;;;;3.52;1.80;;;;;;;18.40;100.00;99436.70;1469912;87;21504;-87
2023/10/28 09:11:32;;;;;;;4.22;1.42;;;;;;;18.55;100.00;99443.55;1473357;87;21663;-86
2023/10/28 09:13:59;;;;;;;3.75;0.95;;;;;;;18.70;100.00;99456.04;1476816;88;21368;-85
2023/10/28 09:16:26;;;;;;;3.70;0.72;;;;;;;18.44;100.00;99459.34;1471928;88;22328;-88
2023/10/28 09:18:53;;;;;;;2.00;0.65;;;;;;;18.60;100.00;99463.80;1470271;88;21368;-89
2023/10/28 09:21:21;;;;;;;2.77;0.95;;;;;;;19.02;100.00;99463.93;1478898;88;21360;-86
2023/10/28 09:23:48;;;;;;;1.87;0.80;;;;;;;19.39;100.00;99468.19;1477169;88;21530;-86
2023/10/28 09:26:15;;;;;;;6.60;1.02;;;;;;;19.80;100.00;99465.22;1474100;88;21589;-87
2023/10/28 09:28:44;;;;;;;1.80;0.68;;;;;;;20.22;100.00;99450.33;1473952;87;21382;-87
2023/10/28 09:31:12;;;;;;;1.80;1.20;;;;;;;20.50;100.00;99458.20;1475390;87;22462;-85
2023/10/28 09:33:40;;;;;;;3.15;0.88;;;;;;;20.25;100.00;99459.80;1476347;87;21412;-89
2023/10/28 09:36:08;;;;;;;4.67;2.47;;;;;;;20.32;100.00;99470.44;1466985;87;21331;-90
2023/10/28 09:38:40;;;;;;;3.02;1.47;;;;;;;20.32;100.00;99468.56;1467820;87;21405;-82
2023/10/28 09:41:09;;;;;;;0.93;0.60;;;;;;;20.11;100.00;99474.01;1473700;87;21574;-83
2023/10/28 09:43:40;;;;;;;3.52;0.80;;;;;;;20.11;100.00;99480.73;1474771;87;21301;-81
2023/10/28 09:46:08;;;;;;;3.80;0.80;;;;;;;20.33;100.00;99474.75;1474745;87;21612;-81
2023/10/28 09:52:54;;;;;;;2.05;0.88;;;;;;;20.79;100.00;99483.84;1468124;88;21537;-81
2023/10/28 09:55:42;;;;;;;3.65;1.00;;;;;;;20.15;100.00;99481.88;1472418;87;21612;-81
2023/10/28 10:01:15;;;;;;;4.40;1.35;;;;;;;19.07;100.00;99490.37;1435323;88;21505;-83
2023/10/28 10:03:59;;;;;;;3.52;1.02;;;;;;;18.55;100.00;99489.09;1471991;88;21463;-81
2023/10/28 10:06:27;;;;;;;2.22;1.05;;;;;;;18.28;100.00;99485.36;1423425;92;21494;-82
2023/10/28 10:08:56;;;;;;;2.58;1.37;;;;;;;17.95;80.93;99493.17;1468782;88;21567;-82
2023/10/28 10:11:25;;;;;;;4.72;2.20;;;;;;;17.81;73.61;99492.45;1422177;88;21376;-81
2023/10/28 10:13:55;;;;;;;4.67;1.70;;;;;;;17.70;73.70;99497.66;1394500;88;21468;-82
2023/10/28 10:16:55;;;;;;;3.40;1.77;;;;;;;17.65;68.44;99500.96;1350837;91;21332;-84
2023/10/28 10:19:36;;;;;;;3.10;0.98;;;;;;;17.66;68.81;99501.78;1377632;91;21429;-83
2023/10/28 10:22:07;;;;;;;4.08;1.50;;;;;;;17.58;69.43;99498.34;1550379;88;21250;-82
2023/10/28 10:24:35;;;;;;;2.85;1.20;;;;;;;17.55;68.72;99498.77;1537490;88;22205;-83
2023/10/28 10:27:04;;;;;;;1.67;0.88;;;;;;;17.55;68.61;99496.09;1353034;91;21435;-82
2023/10/28 10:29:41;;;;;;;3.22;1.30;;;;;;;17.60;68.55;99496.77;1394880;88;21427;-84
2023/10/28 10:32:19;;;;;;;1.10;1.00;;;;;;;17.57;68.58;99494.53;1465207;91;22198;-83
2023/10/28 10:34:46;;;;;;;3.98;1.22;;;;;;;17.54;68.65;99490.95;1556682;88;21176;-83
2023/10/28 10:37:26;;;;;;;1.80;0.70;;;;;;;17.54;68.65;99498.45;1379110;91;21505;-83
2023/10/28 10:39:55;;;;;;;1.67;1.02;;;;;;;17.53;67.89;99496.01;1394752;87;21235;-82
2023/10/28 10:42:25;;;;;;;1.37;0.98;;;;;;;17.55;68.17;99496.59;1390100;89;21243;-83
2023/10/28 10:44:52;;;;;;;;;;;;;;;17.55;68.52;99494.77;1403039;87;21243;-83
2023/10/28 10:47:21;;;;;;;2.30;1.10;;;;;;;17.59;67.92;99497.30;1442058;87;20319;-84
2023/10/28 10:49:49;;;;;;;1.87;0.75;;;;;;;17.72;68.65;99501.75;1458499;87;21346;-84
2023/10/28 10:52:20;;;;;;;1.80;0.78;;;;;;;17.84;68.00;99497.89;1475411;87;21434;-83
2023/10/28 10:54:47;;;;;;;1.30;0.62;;;;;;;18.11;68.37;99497.67;1466544;88;22120;-81
2023/10/28 10:57:14;;;;;;;1.30;0.68;;;;;;;18.27;66.12;99498.45;1471738;88;21456;-85
2023/10/28 10:59:41;;;;;;;2.87;0.60;;;;;;;18.43;66.54;99499.20;1472520;88;21538;-91
2023/10/28 11:02:10;;;;;;;5.17;0.98;;;;;;;18.53;66.83;99496.03;1474532;87;22380;-82
2023/10/28 11:04:37;;;;;;;2.87;1.27;;;;;;;18.63;66.91;99492.83;1463949;88;22286;-84
2023/10/28 11:07:07;;;;;;;2.87;1.10;;;;;;;18.78;65.81;99490.62;1474918;87;21566;-83
2023/10/28 11:09:35;;;;;;;2.27;1.22;;;;;;;18.88;65.09;99493.61;1471753;87;21330;-81
2023/10/28 11:12:03;;;;;;;0.62;0.53;;;;;;;19.01;64.68;99501.19;1403854;87;21279;-81
2023/10/28 11:14:30;;;;;;;3.25;0.80;;;;;;;19.01;63.83;99493.95;1397902;87;22108;-84
2023/10/28 11:16:57;;;;;;;2.10;1.10;;;;;;;19.11;64.30;99497.46;1398780;88;21272;-83
2023/10/28 11:19:25;;;;;;;1.80;0.98;;;;;;;18.96;63.60;99494.33;1398273;87;21265;-82
2023/10/28 11:21:54;;;;;;;1.70;0.82;;;;;;;18.86;64.38;99489.51;1400447;87;21257;-81
2023/10/28 11:24:22;;;;;;;1.45;0.68;;;;;;;18.75;64.69;99496.43;1396541;87;21319;-81
2023/10/28 11:26:50;;;;;;;1.57;0.80;;;;;;;18.65;64.88;99498.80;1396837;88;21324;-84
2023/10/28 11:29:17;;;;;;;2.00;0.60;;;;;;;18.53;64.82;99492.52;1398102;87;22324;-83
2023/10/28 11:31:45;;;;;;;0.75;0.60;;;;;;;18.37;65.10;99488.04;1398090;87;21316;-83
2023/10/28 11:34:15;;;;;;;1.25;0.78;;;;;;;18.33;65.43;99493.55;1551725;87;21332;-82
2023/10/28 11:36:42;;;;;;;1.20;0.82;;;;;;;18.30;66.47;99490.47;1452959;87;21566;-84
2023/10/28 11:39:13;;;;;;;2.62;0.72;;;;;;;18.35;67.18;99490.64;1476418;87;21353;-83
2023/10/28 11:41:47;;;;;;;3.52;1.10;;;;;;;18.36;66.59;99483.73;1513265;87;21382;-81
2023/10/28 11:44:15;;;;;;;1.32;0.82;;;;;;;18.34;66.54;99479.11;1475263;87;22401;-85
2023/10/28 11:46:42;;;;;;;4.22;0.80;;;;;;;18.25;66.58;99480.44;1475098;87;21412;-82
2023/10/28 11:49:09;;;;;;;4.20;0.60;;;;;;;18.19;66.50;99480.80;1474224;87;22822;-83
2023/10/28 11:51:37;;;;;;;3.55;0.68;;;;;;;18.10;67.18;99480.78;1467102;88;21504;-82
2023/10/28 11:54:04;;;;;;;1.47;0.88;;;;;;;18.08;67.34;99480.70;1474366;87;21517;-84